sensor_id;sensor_type;location;lat;lon;timestamp;P1;durP1;ratioP1;P2;durP2;ratioP2
51995;SDS011;38010;53.264;6.592;2022-07-29T00:02:08;0.28;;;0.28;;
51995;SDS011;38010;53.264;6.592;2022-07-29T00:04:34;1.30;;;0.45;;
51995;SDS011;38010;53.264;6.592;2022-07-29T00:07:00;0.40;;;0.40;;
51995;SDS011;38010;53.264;6.592;2022-07-29T00:09:26;0.57;;;0.40;;
51995;SDS011;38010;53.264;6.592;2022-07-29T00:11:52;0.30;;;0.30;;
51995;SDS011;38010;53.264;6.592;2022-07-29T00:14:20;0.60;;;0.40;;
51995;SDS011;38010;53.264;6.592;2022-07-29T00:16:45;1.20;;;0.40;;
51995;SDS011;38010;53.264;6.592;2022-07-29T00:19:11;0.52;;;0.43;;
51995;SDS011;38010;53.264;6.592;2022-07-29T00:21:37;1.25;;;0.30;;
51995;SDS011;38010;53.264;6.592;2022-07-29T00:24:02;0.40;;;0.30;;
51995;SDS011;38010;53.264;6.592;2022-07-29T00:26:28;0.35;;;0.30;;
51995;SDS011;38010;53.264;6.592;2022-07-29T00:28:57;0.30;;;0.30;;
51995;SDS011;38010;53.264;6.592;2022-07-29T00:31:24;0.30;;;0.30;;
51995;SDS011;38010;53.264;6.592;2022-07-29T00:33:49;0.63;;;0.40;;
51995;SDS011;38010;53.264;6.592;2022-07-29T00:36:15;0.30;;;0.30;;
51995;SDS011;38010;53.264;6.592;2022-07-29T00:38:41;0.93;;;0.40;;
51995;SDS011;38010;53.264;6.592;2022-07-29T00:41:10;0.40;;;0.40;;
51995;SDS011;38010;53.264;6.592;2022-07-29T00:43:36;0.47;;;0.30;;
51995;SDS011;38010;53.264;6.592;2022-07-29T00:46:02;0.55;;;0.30;;
51995;SDS011;38010;53.264;6.592;2022-07-29T00:48:28;0.30;;;0.30;;
51995;SDS011;38010;53.264;6.592;2022-07-29T00:50:53;0.63;;;0.32;;
51995;SDS011;38010;53.264;6.592;2022-07-29T00:53:22;0.60;;;0.40;;
51995;SDS011;38010;53.264;6.592;2022-07-29T00:55:48;0.40;;;0.40;;
51995;SDS011;38010;53.264;6.592;2022-07-29T00:58:14;0.32;;;0.32;;
51995;SDS011;38010;53.264;6.592;2022-07-29T01:00:39;0.50;;;0.30;;
51995;SDS011;38010;53.264;6.592;2022-07-29T01:03:08;0.30;;;0.30;;
51995;SDS011;38010;53.264;6.592;2022-07-29T01:05:34;1.00;;;0.40;;
51995;SDS011;38010;53.264;6.592;2022-07-29T01:08:00;0.22;;;0.22;;
51995;SDS011;38010;53.264;6.592;2022-07-29T01:10:27;1.27;;;0.35;;
51995;SDS011;38010;53.264;6.592;2022-07-29T01:12:54;0.30;;;0.30;;
51995;SDS011;38010;53.264;6.592;2022-07-29T01:15:22;0.43;;;0.38;;
51995;SDS011;38010;53.264;6.592;2022-07-29T01:31:22;0.52;;;0.40;;
51995;SDS011;38010;53.264;6.592;2022-07-29T01:33:55;0.20;;;0.20;;
51995;SDS011;38010;53.264;6.592;2022-07-29T01:36:27;0.30;;;0.30;;
51995;SDS011;38010;53.264;6.592;2022-07-29T01:41:56;0.30;;;0.30;;
51995;SDS011;38010;53.264;6.592;2022-07-29T01:44:34;0.30;;;0.30;;
51995;SDS011;38010;53.264;6.592;2022-07-29T01:47:06;0.52;;;0.30;;
51995;SDS011;38010;53.264;6.592;2022-07-29T01:49:39;0.70;;;0.40;;
51995;SDS011;38010;53.264;6.592;2022-07-29T01:52:11;0.68;;;0.50;;
51995;SDS011;38010;53.264;6.592;2022-07-29T01:54:45;0.32;;;0.32;;
51995;SDS011;38010;53.264;6.592;2022-07-29T01:57:17;0.38;;;0.30;;
51995;SDS011;38010;53.264;6.592;2022-07-29T01:59:45;0.50;;;0.38;;
51995;SDS011;38010;53.264;6.592;2022-07-29T02:02:12;0.57;;;0.43;;
51995;SDS011;38010;53.264;6.592;2022-07-29T02:04:40;0.80;;;0.30;;
51995;SDS011;38010;53.264;6.592;2022-07-29T02:07:08;0.73;;;0.60;;
51995;SDS011;38010;53.264;6.592;2022-07-29T02:09:38;0.30;;;0.30;;
51995;SDS011;38010;53.264;6.592;2022-07-29T02:12:06;0.68;;;0.40;;
51995;SDS011;38010;53.264;6.592;2022-07-29T02:14:36;0.50;;;0.40;;
51995;SDS011;38010;53.264;6.592;2022-07-29T02:17:04;0.32;;;0.32;;
51995;SDS011;38010;53.264;6.592;2022-07-29T02:19:31;1.30;;;0.45;;
51995;SDS011;38010;53.264;6.592;2022-07-29T02:21:58;0.40;;;0.20;;
51995;SDS011;38010;53.264;6.592;2022-07-29T02:24:25;0.50;;;0.40;;
51995;SDS011;38010;53.264;6.592;2022-07-29T02:26:52;0.57;;;0.30;;
51995;SDS011;38010;53.264;6.592;2022-07-29T02:29:21;0.38;;;0.28;;
51995;SDS011;38010;53.264;6.592;2022-07-29T02:31:50;0.80;;;0.40;;
51995;SDS011;38010;53.264;6.592;2022-07-29T02:34:16;1.63;;;0.30;;
51995;SDS011;38010;53.264;6.592;2022-07-29T02:36:43;0.75;;;0.30;;
51995;SDS011;38010;53.264;6.592;2022-07-29T02:39:10;0.30;;;0.30;;
51995;SDS011;38010;53.264;6.592;2022-07-29T02:44:16;0.40;;;0.30;;
51995;SDS011;38010;53.264;6.592;2022-07-29T02:52:29;1.00;;;0.38;;
51995;SDS011;38010;53.264;6.592;2022-07-29T02:55:16;0.28;;;0.28;;
51995;SDS011;38010;53.264;6.592;2022-07-29T03:00:39;0.30;;;0.30;;
51995;SDS011;38010;53.264;6.592;2022-07-29T03:03:11;0.35;;;0.30;;
51995;SDS011;38010;53.264;6.592;2022-07-29T03:05:39;0.60;;;0.30;;
51995;SDS011;38010;53.264;6.592;2022-07-29T03:08:06;0.30;;;0.30;;
51995;SDS011;38010;53.264;6.592;2022-07-29T03:10:34;0.30;;;0.30;;
51995;SDS011;38010;53.264;6.592;2022-07-29T03:13:02;0.57;;;0.30;;
51995;SDS011;38010;53.264;6.592;2022-07-29T03:15:29;0.45;;;0.30;;
51995;SDS011;38010;53.264;6.592;2022-07-29T03:17:56;0.55;;;0.40;;
51995;SDS011;38010;53.264;6.592;2022-07-29T03:20:23;0.70;;;0.30;;
51995;SDS011;38010;53.264;6.592;2022-07-29T03:22:49;0.85;;;0.35;;
51995;SDS011;38010;53.264;6.592;2022-07-29T03:25:16;0.38;;;0.38;;
51995;SDS011;38010;53.264;6.592;2022-07-29T03:27:43;1.00;;;0.50;;
51995;SDS011;38010;53.264;6.592;2022-07-29T03:30:09;0.30;;;0.30;;
51995;SDS011;38010;53.264;6.592;2022-07-29T03:32:36;0.30;;;0.30;;
51995;SDS011;38010;53.264;6.592;2022-07-29T03:35:03;0.98;;;0.35;;
51995;SDS011;38010;53.264;6.592;2022-07-29T03:37:30;0.68;;;0.30;;
51995;SDS011;38010;53.264;6.592;2022-07-29T03:39:56;0.85;;;0.40;;
51995;SDS011;38010;53.264;6.592;2022-07-29T03:42:24;0.88;;;0.40;;
51995;SDS011;38010;53.264;6.592;2022-07-29T03:44:53;0.30;;;0.30;;
51995;SDS011;38010;53.264;6.592;2022-07-29T03:47:22;1.20;;;0.50;;
51995;SDS011;38010;53.264;6.592;2022-07-29T03:49:51;1.02;;;0.30;;
51995;SDS011;38010;53.264;6.592;2022-07-29T03:52:19;0.50;;;0.30;;
51995;SDS011;38010;53.264;6.592;2022-07-29T03:54:46;1.08;;;0.45;;
51995;SDS011;38010;53.264;6.592;2022-07-29T03:57:12;0.43;;;0.30;;
51995;SDS011;38010;53.264;6.592;2022-07-29T03:59:40;1.00;;;0.30;;
51995;SDS011;38010;53.264;6.592;2022-07-29T04:02:08;0.40;;;0.40;;
51995;SDS011;38010;53.264;6.592;2022-07-29T04:04:36;0.32;;;0.30;;
51995;SDS011;38010;53.264;6.592;2022-07-29T04:07:02;0.30;;;0.30;;
51995;SDS011;38010;53.264;6.592;2022-07-29T04:09:29;1.33;;;0.30;;
51995;SDS011;38010;53.264;6.592;2022-07-29T04:11:54;0.68;;;0.40;;
51995;SDS011;38010;53.264;6.592;2022-07-29T04:14:20;0.47;;;0.40;;
51995;SDS011;38010;53.264;6.592;2022-07-29T04:16:46;0.60;;;0.40;;
51995;SDS011;38010;53.264;6.592;2022-07-29T04:19:12;0.68;;;0.38;;
51995;SDS011;38010;53.264;6.592;2022-07-29T04:21:38;0.65;;;0.32;;
51995;SDS011;38010;53.264;6.592;2022-07-29T04:24:05;0.73;;;0.32;;
51995;SDS011;38010;53.264;6.592;2022-07-29T04:26:31;0.80;;;0.50;;
51995;SDS011;38010;53.264;6.592;2022-07-29T04:28:57;0.73;;;0.30;;
51995;SDS011;38010;53.264;6.592;2022-07-29T04:31:23;0.43;;;0.40;;
51995;SDS011;38010;53.264;6.592;2022-07-29T04:33:49;0.47;;;0.40;;
51995;SDS011;38010;53.264;6.592;2022-07-29T04:36:14;0.40;;;0.30;;
51995;SDS011;38010;53.264;6.592;2022-07-29T04:38:40;0.52;;;0.40;;
51995;SDS011;38010;53.264;6.592;2022-07-29T04:41:06;0.40;;;0.30;;
51995;SDS011;38010;53.264;6.592;2022-07-29T04:43:33;0.30;;;0.30;;
51995;SDS011;38010;53.264;6.592;2022-07-29T04:46:05;0.40;;;0.40;;
51995;SDS011;38010;53.264;6.592;2022-07-29T04:48:32;0.38;;;0.38;;
51995;SDS011;38010;53.264;6.592;2022-07-29T04:50:57;0.82;;;0.40;;
51995;SDS011;38010;53.264;6.592;2022-07-29T04:53:24;0.50;;;0.43;;
51995;SDS011;38010;53.264;6.592;2022-07-29T04:55:50;0.88;;;0.40;;
51995;SDS011;38010;53.264;6.592;2022-07-29T04:58:16;1.42;;;0.75;;
51995;SDS011;38010;53.264;6.592;2022-07-29T05:00:41;0.77;;;0.38;;
51995;SDS011;38010;53.264;6.592;2022-07-29T05:03:07;0.43;;;0.40;;
51995;SDS011;38010;53.264;6.592;2022-07-29T05:05:33;0.68;;;0.40;;
51995;SDS011;38010;53.264;6.592;2022-07-29T05:07:59;0.43;;;0.40;;
51995;SDS011;38010;53.264;6.592;2022-07-29T05:10:24;0.40;;;0.40;;
51995;SDS011;38010;53.264;6.592;2022-07-29T05:12:50;0.75;;;0.40;;
51995;SDS011;38010;53.264;6.592;2022-07-29T05:15:16;0.38;;;0.30;;
51995;SDS011;38010;53.264;6.592;2022-07-29T05:17:42;0.40;;;0.40;;
51995;SDS011;38010;53.264;6.592;2022-07-29T05:20:09;0.40;;;0.38;;
51995;SDS011;38010;53.264;6.592;2022-07-29T05:22:35;0.52;;;0.30;;
51995;SDS011;38010;53.264;6.592;2022-07-29T05:25:01;0.40;;;0.40;;
51995;SDS011;38010;53.264;6.592;2022-07-29T05:27:27;0.60;;;0.35;;
51995;SDS011;38010;53.264;6.592;2022-07-29T05:29:53;0.82;;;0.50;;
51995;SDS011;38010;53.264;6.592;2022-07-29T05:32:18;0.52;;;0.40;;
51995;SDS011;38010;53.264;6.592;2022-07-29T05:34:44;0.40;;;0.40;;
51995;SDS011;38010;53.264;6.592;2022-07-29T05:37:10;0.40;;;0.40;;
51995;SDS011;38010;53.264;6.592;2022-07-29T05:39:38;1.15;;;0.45;;
51995;SDS011;38010;53.264;6.592;2022-07-29T05:42:07;0.40;;;0.38;;
51995;SDS011;38010;53.264;6.592;2022-07-29T05:44:37;0.60;;;0.40;;
51995;SDS011;38010;53.264;6.592;2022-07-29T05:47:05;0.75;;;0.40;;
51995;SDS011;38010;53.264;6.592;2022-07-29T05:49:31;0.75;;;0.40;;
51995;SDS011;38010;53.264;6.592;2022-07-29T05:51:58;0.68;;;0.40;;
51995;SDS011;38010;53.264;6.592;2022-07-29T05:54:24;0.93;;;0.40;;
51995;SDS011;38010;53.264;6.592;2022-07-29T05:56:50;0.52;;;0.40;;
51995;SDS011;38010;53.264;6.592;2022-07-29T05:59:16;0.50;;;0.30;;
51995;SDS011;38010;53.264;6.592;2022-07-29T06:01:41;0.52;;;0.40;;
51995;SDS011;38010;53.264;6.592;2022-07-29T06:04:07;1.27;;;0.70;;
51995;SDS011;38010;53.264;6.592;2022-07-29T06:06:33;0.38;;;0.35;;
51995;SDS011;38010;53.264;6.592;2022-07-29T06:09:00;0.43;;;0.40;;
51995;SDS011;38010;53.264;6.592;2022-07-29T06:11:26;0.40;;;0.40;;
51995;SDS011;38010;53.264;6.592;2022-07-29T06:13:52;0.75;;;0.50;;
51995;SDS011;38010;53.264;6.592;2022-07-29T06:16:18;0.40;;;0.40;;
51995;SDS011;38010;53.264;6.592;2022-07-29T06:18:44;1.13;;;0.50;;
51995;SDS011;38010;53.264;6.592;2022-07-29T06:21:09;0.43;;;0.40;;
51995;SDS011;38010;53.264;6.592;2022-07-29T06:23:38;0.70;;;0.50;;
51995;SDS011;38010;53.264;6.592;2022-07-29T06:26:04;0.90;;;0.50;;
51995;SDS011;38010;53.264;6.592;2022-07-29T06:28:31;0.85;;;0.57;;
51995;SDS011;38010;53.264;6.592;2022-07-29T06:30:57;1.70;;;0.50;;
51995;SDS011;38010;53.264;6.592;2022-07-29T06:33:23;0.82;;;0.50;;
51995;SDS011;38010;53.264;6.592;2022-07-29T06:35:49;1.60;;;0.50;;
51995;SDS011;38010;53.264;6.592;2022-07-29T06:38:15;0.50;;;0.40;;
51995;SDS011;38010;53.264;6.592;2022-07-29T06:40:41;0.60;;;0.40;;
51995;SDS011;38010;53.264;6.592;2022-07-29T06:43:30;1.45;;;0.60;;
51995;SDS011;38010;53.264;6.592;2022-07-29T06:46:04;0.68;;;0.40;;
51995;SDS011;38010;53.264;6.592;2022-07-29T06:48:32;1.15;;;0.50;;
51995;SDS011;38010;53.264;6.592;2022-07-29T06:50:59;0.90;;;0.50;;
51995;SDS011;38010;53.264;6.592;2022-07-29T06:53:25;4.63;;;0.60;;
51995;SDS011;38010;53.264;6.592;2022-07-29T06:55:52;4.25;;;0.98;;
51995;SDS011;38010;53.264;6.592;2022-07-29T06:58:17;2.28;;;0.63;;
51995;SDS011;38010;53.264;6.592;2022-07-29T07:00:45;1.80;;;0.68;;
51995;SDS011;38010;53.264;6.592;2022-07-29T07:03:13;0.88;;;0.52;;
51995;SDS011;38010;53.264;6.592;2022-07-29T07:05:39;0.98;;;0.50;;
51995;SDS011;38010;53.264;6.592;2022-07-29T07:08:05;1.27;;;0.60;;
51995;SDS011;38010;53.264;6.592;2022-07-29T07:10:32;1.75;;;0.63;;
51995;SDS011;38010;53.264;6.592;2022-07-29T07:12:58;1.45;;;0.30;;
51995;SDS011;38010;53.264;6.592;2022-07-29T07:15:24;0.80;;;0.40;;
51995;SDS011;38010;53.264;6.592;2022-07-29T07:17:50;0.43;;;0.40;;
51995;SDS011;38010;53.264;6.592;2022-07-29T07:20:16;0.90;;;0.50;;
51995;SDS011;38010;53.264;6.592;2022-07-29T07:22:42;1.70;;;0.60;;
51995;SDS011;38010;53.264;6.592;2022-07-29T07:25:08;1.38;;;0.60;;
51995;SDS011;38010;53.264;6.592;2022-07-29T07:27:35;0.80;;;0.60;;
51995;SDS011;38010;53.264;6.592;2022-07-29T07:30:02;2.35;;;0.50;;
51995;SDS011;38010;53.264;6.592;2022-07-29T07:32:30;1.42;;;0.60;;
51995;SDS011;38010;53.264;6.592;2022-07-29T07:34:57;2.50;;;0.73;;
51995;SDS011;38010;53.264;6.592;2022-07-29T07:37:23;0.68;;;0.45;;
51995;SDS011;38010;53.264;6.592;2022-07-29T07:39:50;4.03;;;0.63;;
51995;SDS011;38010;53.264;6.592;2022-07-29T07:42:19;1.63;;;0.75;;
51995;SDS011;38010;53.264;6.592;2022-07-29T07:44:45;0.52;;;0.50;;
51995;SDS011;38010;53.264;6.592;2022-07-29T07:47:11;1.35;;;0.43;;
51995;SDS011;38010;53.264;6.592;2022-07-29T07:49:37;0.68;;;0.63;;
51995;SDS011;38010;53.264;6.592;2022-07-29T07:52:03;1.42;;;0.70;;
51995;SDS011;38010;53.264;6.592;2022-07-29T07:54:29;1.70;;;0.52;;
51995;SDS011;38010;53.264;6.592;2022-07-29T07:56:55;1.42;;;0.60;;
51995;SDS011;38010;53.264;6.592;2022-07-29T07:59:21;1.77;;;0.60;;
51995;SDS011;38010;53.264;6.592;2022-07-29T08:01:48;1.25;;;0.57;;
51995;SDS011;38010;53.264;6.592;2022-07-29T08:04:14;2.13;;;0.45;;
51995;SDS011;38010;53.264;6.592;2022-07-29T08:06:39;0.98;;;0.47;;
51995;SDS011;38010;53.264;6.592;2022-07-29T08:09:05;1.20;;;0.60;;
51995;SDS011;38010;53.264;6.592;2022-07-29T08:11:31;1.52;;;0.60;;
51995;SDS011;38010;53.264;6.592;2022-07-29T08:13:57;2.28;;;0.77;;
51995;SDS011;38010;53.264;6.592;2022-07-29T08:16:23;0.93;;;0.50;;
51995;SDS011;38010;53.264;6.592;2022-07-29T08:18:50;0.98;;;0.68;;
51995;SDS011;38010;53.264;6.592;2022-07-29T08:21:16;1.58;;;0.80;;
51995;SDS011;38010;53.264;6.592;2022-07-29T08:23:43;0.55;;;0.45;;
51995;SDS011;38010;53.264;6.592;2022-07-29T08:26:18;3.08;;;0.80;;
51995;SDS011;38010;53.264;6.592;2022-07-29T08:28:45;2.80;;;0.70;;
51995;SDS011;38010;53.264;6.592;2022-07-29T08:31:14;1.50;;;0.70;;
51995;SDS011;38010;53.264;6.592;2022-07-29T08:33:41;1.10;;;0.57;;
51995;SDS011;38010;53.264;6.592;2022-07-29T08:36:07;2.63;;;0.60;;
51995;SDS011;38010;53.264;6.592;2022-07-29T08:38:33;0.88;;;0.60;;
51995;SDS011;38010;53.264;6.592;2022-07-29T08:41:02;1.08;;;0.50;;
51995;SDS011;38010;53.264;6.592;2022-07-29T08:43:29;1.30;;;0.63;;
51995;SDS011;38010;53.264;6.592;2022-07-29T08:45:54;1.80;;;0.52;;
51995;SDS011;38010;53.264;6.592;2022-07-29T08:48:21;0.47;;;0.45;;
51995;SDS011;38010;53.264;6.592;2022-07-29T08:50:48;0.70;;;0.50;;
51995;SDS011;38010;53.264;6.592;2022-07-29T08:53:19;2.72;;;0.60;;
51995;SDS011;38010;53.264;6.592;2022-07-29T08:55:47;0.75;;;0.50;;
51995;SDS011;38010;53.264;6.592;2022-07-29T08:58:15;1.00;;;0.60;;
51995;SDS011;38010;53.264;6.592;2022-07-29T09:00:42;1.25;;;0.45;;
51995;SDS011;38010;53.264;6.592;2022-07-29T09:03:11;0.40;;;0.40;;
51995;SDS011;38010;53.264;6.592;2022-07-29T09:05:44;1.60;;;0.60;;
51995;SDS011;38010;53.264;6.592;2022-07-29T09:08:11;1.17;;;0.60;;
51995;SDS011;38010;53.264;6.592;2022-07-29T09:10:38;1.15;;;0.40;;
51995;SDS011;38010;53.264;6.592;2022-07-29T09:13:04;1.73;;;0.60;;
51995;SDS011;38010;53.264;6.592;2022-07-29T09:15:30;5.30;;;0.85;;
51995;SDS011;38010;53.264;6.592;2022-07-29T09:17:56;1.20;;;0.50;;
51995;SDS011;38010;53.264;6.592;2022-07-29T09:20:23;1.58;;;0.43;;
51995;SDS011;38010;53.264;6.592;2022-07-29T09:22:52;0.85;;;0.50;;
51995;SDS011;38010;53.264;6.592;2022-07-29T09:25:34;0.63;;;0.50;;
51995;SDS011;38010;53.264;6.592;2022-07-29T09:28:05;2.20;;;0.65;;
51995;SDS011;38010;53.264;6.592;2022-07-29T09:30:31;2.42;;;0.73;;
51995;SDS011;38010;53.264;6.592;2022-07-29T09:32:58;3.28;;;0.82;;
51995;SDS011;38010;53.264;6.592;2022-07-29T09:35:26;3.33;;;0.90;;
51995;SDS011;38010;53.264;6.592;2022-07-29T09:37:53;2.45;;;0.70;;
51995;SDS011;38010;53.264;6.592;2022-07-29T09:40:20;4.20;;;0.80;;
51995;SDS011;38010;53.264;6.592;2022-07-29T09:42:53;1.98;;;0.80;;
51995;SDS011;38010;53.264;6.592;2022-07-29T09:45:29;0.63;;;0.50;;
51995;SDS011;38010;53.264;6.592;2022-07-29T09:47:56;2.15;;;0.70;;
51995;SDS011;38010;53.264;6.592;2022-07-29T09:50:34;0.70;;;0.60;;
51995;SDS011;38010;53.264;6.592;2022-07-29T09:53:01;1.83;;;0.70;;
51995;SDS011;38010;53.264;6.592;2022-07-29T09:55:27;1.38;;;0.40;;
51995;SDS011;38010;53.264;6.592;2022-07-29T09:57:52;1.08;;;0.60;;
51995;SDS011;38010;53.264;6.592;2022-07-29T10:00:19;0.95;;;0.52;;
51995;SDS011;38010;53.264;6.592;2022-07-29T10:02:47;0.98;;;0.60;;
51995;SDS011;38010;53.264;6.592;2022-07-29T10:05:20;0.85;;;0.50;;
51995;SDS011;38010;53.264;6.592;2022-07-29T10:07:54;2.03;;;0.60;;
51995;SDS011;38010;53.264;6.592;2022-07-29T10:10:22;0.77;;;0.50;;
51995;SDS011;38010;53.264;6.592;2022-07-29T10:15:20;2.15;;;0.63;;
51995;SDS011;38010;53.264;6.592;2022-07-29T10:17:47;1.15;;;0.60;;
51995;SDS011;38010;53.264;6.592;2022-07-29T10:20:13;2.20;;;0.90;;
51995;SDS011;38010;53.264;6.592;2022-07-29T10:22:40;1.05;;;0.57;;
51995;SDS011;38010;53.264;6.592;2022-07-29T10:25:06;0.82;;;0.60;;
51995;SDS011;38010;53.264;6.592;2022-07-29T10:27:34;0.88;;;0.50;;
51995;SDS011;38010;53.264;6.592;2022-07-29T10:30:01;0.90;;;0.43;;
51995;SDS011;38010;53.264;6.592;2022-07-29T10:32:39;0.88;;;0.60;;
51995;SDS011;38010;53.264;6.592;2022-07-29T10:46:47;2.63;;;0.70;;
51995;SDS011;38010;53.264;6.592;2022-07-29T10:59:37;1.45;;;0.80;;
51995;SDS011;38010;53.264;6.592;2022-07-29T11:02:40;0.88;;;0.60;;
51995;SDS011;38010;53.264;6.592;2022-07-29T11:05:04;1.25;;;0.50;;
51995;SDS011;38010;53.264;6.592;2022-07-29T11:07:35;0.88;;;0.60;;
51995;SDS011;38010;53.264;6.592;2022-07-29T11:15:12;1.42;;;0.82;;
51995;SDS011;38010;53.264;6.592;2022-07-29T11:23:19;2.88;;;0.77;;
51995;SDS011;38010;53.264;6.592;2022-07-29T11:29:00;1.48;;;0.90;;
51995;SDS011;38010;53.264;6.592;2022-07-29T11:34:32;1.52;;;0.63;;
51995;SDS011;38010;53.264;6.592;2022-07-29T11:39:45;1.45;;;0.70;;
51995;SDS011;38010;53.264;6.592;2022-07-29T11:47:48;1.60;;;0.98;;
51995;SDS011;38010;53.264;6.592;2022-07-29T11:50:30;2.42;;;0.77;;
51995;SDS011;38010;53.264;6.592;2022-07-29T11:52:57;0.82;;;0.63;;
51995;SDS011;38010;53.264;6.592;2022-07-29T11:55:23;2.38;;;1.00;;
51995;SDS011;38010;53.264;6.592;2022-07-29T11:57:54;2.03;;;1.05;;
51995;SDS011;38010;53.264;6.592;2022-07-29T12:00:25;1.58;;;0.90;;
51995;SDS011;38010;53.264;6.592;2022-07-29T12:02:57;1.20;;;0.68;;
51995;SDS011;38010;53.264;6.592;2022-07-29T12:05:57;0.95;;;0.70;;
51995;SDS011;38010;53.264;6.592;2022-07-29T12:08:22;1.27;;;0.70;;
51995;SDS011;38010;53.264;6.592;2022-07-29T12:10:50;2.25;;;0.90;;
51995;SDS011;38010;53.264;6.592;2022-07-29T12:13:18;1.98;;;0.77;;
51995;SDS011;38010;53.264;6.592;2022-07-29T12:15:55;3.10;;;1.20;;
51995;SDS011;38010;53.264;6.592;2022-07-29T12:18:22;1.65;;;0.88;;
51995;SDS011;38010;53.264;6.592;2022-07-29T12:20:48;1.83;;;1.10;;
51995;SDS011;38010;53.264;6.592;2022-07-29T12:23:21;2.47;;;0.82;;
51995;SDS011;38010;53.264;6.592;2022-07-29T12:25:46;0.60;;;0.60;;
51995;SDS011;38010;53.264;6.592;2022-07-29T12:28:12;1.40;;;0.70;;
51995;SDS011;38010;53.264;6.592;2022-07-29T12:35:38;2.63;;;0.90;;
51995;SDS011;38010;53.264;6.592;2022-07-29T12:38:04;1.48;;;0.85;;
51995;SDS011;38010;53.264;6.592;2022-07-29T12:40:30;1.40;;;0.75;;
51995;SDS011;38010;53.264;6.592;2022-07-29T12:43:05;1.20;;;0.70;;
51995;SDS011;38010;53.264;6.592;2022-07-29T12:45:32;3.10;;;0.80;;
51995;SDS011;38010;53.264;6.592;2022-07-29T12:47:58;2.05;;;0.90;;
51995;SDS011;38010;53.264;6.592;2022-07-29T12:50:24;1.23;;;0.73;;
51995;SDS011;38010;53.264;6.592;2022-07-29T12:52:50;2.67;;;1.25;;
51995;SDS011;38010;53.264;6.592;2022-07-29T12:55:16;2.03;;;0.93;;
51995;SDS011;38010;53.264;6.592;2022-07-29T12:58:01;1.40;;;0.70;;
51995;SDS011;38010;53.264;6.592;2022-07-29T13:00:27;4.32;;;1.02;;
51995;SDS011;38010;53.264;6.592;2022-07-29T13:02:54;3.63;;;1.00;;
51995;SDS011;38010;53.264;6.592;2022-07-29T13:05:21;2.13;;;0.85;;
51995;SDS011;38010;53.264;6.592;2022-07-29T13:07:47;3.88;;;1.00;;
51995;SDS011;38010;53.264;6.592;2022-07-29T13:10:18;2.35;;;0.90;;
51995;SDS011;38010;53.264;6.592;2022-07-29T13:13:02;1.33;;;0.65;;
51995;SDS011;38010;53.264;6.592;2022-07-29T13:15:30;1.75;;;0.60;;
51995;SDS011;38010;53.264;6.592;2022-07-29T13:17:56;1.55;;;0.80;;
51995;SDS011;38010;53.264;6.592;2022-07-29T13:20:26;3.33;;;1.00;;
51995;SDS011;38010;53.264;6.592;2022-07-29T13:22:57;1.58;;;0.60;;
51995;SDS011;38010;53.264;6.592;2022-07-29T13:25:33;1.48;;;0.70;;
51995;SDS011;38010;53.264;6.592;2022-07-29T13:27:59;1.88;;;0.88;;
51995;SDS011;38010;53.264;6.592;2022-07-29T13:30:25;2.28;;;0.80;;
51995;SDS011;38010;53.264;6.592;2022-07-29T13:32:51;1.40;;;0.60;;
51995;SDS011;38010;53.264;6.592;2022-07-29T13:35:17;1.40;;;0.98;;
51995;SDS011;38010;53.264;6.592;2022-07-29T13:37:44;2.15;;;0.80;;
51995;SDS011;38010;53.264;6.592;2022-07-29T13:40:10;2.17;;;0.90;;
51995;SDS011;38010;53.264;6.592;2022-07-29T13:42:36;1.42;;;0.70;;
51995;SDS011;38010;53.264;6.592;2022-07-29T13:45:02;2.08;;;0.70;;
51995;SDS011;38010;53.264;6.592;2022-07-29T13:47:29;1.88;;;0.70;;
51995;SDS011;38010;53.264;6.592;2022-07-29T13:49:55;1.73;;;0.80;;
51995;SDS011;38010;53.264;6.592;2022-07-29T13:52:21;0.82;;;0.70;;
51995;SDS011;38010;53.264;6.592;2022-07-29T13:54:47;0.93;;;0.63;;
51995;SDS011;38010;53.264;6.592;2022-07-29T13:57:13;1.35;;;0.70;;
51995;SDS011;38010;53.264;6.592;2022-07-29T13:59:42;1.70;;;0.73;;
51995;SDS011;38010;53.264;6.592;2022-07-29T14:02:09;2.25;;;0.85;;
51995;SDS011;38010;53.264;6.592;2022-07-29T14:04:36;1.80;;;0.85;;
51995;SDS011;38010;53.264;6.592;2022-07-29T14:07:02;0.60;;;0.50;;
51995;SDS011;38010;53.264;6.592;2022-07-29T14:09:27;1.20;;;0.55;;
51995;SDS011;38010;53.264;6.592;2022-07-29T14:11:54;1.73;;;0.60;;
51995;SDS011;38010;53.264;6.592;2022-07-29T14:14:21;1.77;;;0.80;;
51995;SDS011;38010;53.264;6.592;2022-07-29T14:16:46;2.30;;;0.90;;
51995;SDS011;38010;53.264;6.592;2022-07-29T14:19:12;1.35;;;0.70;;
51995;SDS011;38010;53.264;6.592;2022-07-29T14:21:38;0.75;;;0.60;;
51995;SDS011;38010;53.264;6.592;2022-07-29T14:24:04;2.70;;;0.85;;
51995;SDS011;38010;53.264;6.592;2022-07-29T14:26:31;1.20;;;0.70;;
51995;SDS011;38010;53.264;6.592;2022-07-29T14:28:56;1.23;;;0.70;;
51995;SDS011;38010;53.264;6.592;2022-07-29T14:31:22;1.02;;;0.70;;
51995;SDS011;38010;53.264;6.592;2022-07-29T14:33:48;0.82;;;0.60;;
51995;SDS011;38010;53.264;6.592;2022-07-29T14:36:14;0.85;;;0.63;;
51995;SDS011;38010;53.264;6.592;2022-07-29T14:38:39;1.83;;;0.80;;
51995;SDS011;38010;53.264;6.592;2022-07-29T14:41:06;1.95;;;0.75;;
51995;SDS011;38010;53.264;6.592;2022-07-29T14:43:33;0.65;;;0.60;;
51995;SDS011;38010;53.264;6.592;2022-07-29T14:46:00;1.00;;;0.68;;
51995;SDS011;38010;53.264;6.592;2022-07-29T14:48:26;1.58;;;0.50;;
51995;SDS011;38010;53.264;6.592;2022-07-29T14:50:51;2.60;;;0.80;;
51995;SDS011;38010;53.264;6.592;2022-07-29T14:53:17;1.00;;;0.60;;
51995;SDS011;38010;53.264;6.592;2022-07-29T14:55:43;0.80;;;0.60;;
51995;SDS011;38010;53.264;6.592;2022-07-29T14:58:09;1.65;;;0.70;;
51995;SDS011;38010;53.264;6.592;2022-07-29T15:00:34;1.88;;;0.70;;
51995;SDS011;38010;53.264;6.592;2022-07-29T15:03:02;2.45;;;0.80;;
51995;SDS011;38010;53.264;6.592;2022-07-29T15:05:28;1.80;;;0.65;;
51995;SDS011;38010;53.264;6.592;2022-07-29T15:07:57;4.18;;;0.70;;
51995;SDS011;38010;53.264;6.592;2022-07-29T15:10:24;3.03;;;0.70;;
51995;SDS011;38010;53.264;6.592;2022-07-29T15:12:52;1.38;;;0.57;;
51995;SDS011;38010;53.264;6.592;2022-07-29T15:15:18;1.08;;;0.50;;
51995;SDS011;38010;53.264;6.592;2022-07-29T15:17:44;2.05;;;0.90;;
51995;SDS011;38010;53.264;6.592;2022-07-29T15:20:10;3.50;;;0.73;;
51995;SDS011;38010;53.264;6.592;2022-07-29T15:22:36;2.45;;;0.80;;
51995;SDS011;38010;53.264;6.592;2022-07-29T15:25:03;3.33;;;0.70;;
51995;SDS011;38010;53.264;6.592;2022-07-29T15:27:29;4.72;;;1.13;;
51995;SDS011;38010;53.264;6.592;2022-07-29T15:29:55;1.33;;;0.95;;
51995;SDS011;38010;53.264;6.592;2022-07-29T15:32:21;1.73;;;0.88;;
51995;SDS011;38010;53.264;6.592;2022-07-29T15:34:47;1.67;;;0.77;;
51995;SDS011;38010;53.264;6.592;2022-07-29T15:37:13;1.75;;;1.02;;
51995;SDS011;38010;53.264;6.592;2022-07-29T15:39:38;1.85;;;0.90;;
51995;SDS011;38010;53.264;6.592;2022-07-29T15:42:04;1.73;;;0.80;;
51995;SDS011;38010;53.264;6.592;2022-07-29T15:44:30;3.65;;;1.00;;
51995;SDS011;38010;53.264;6.592;2022-07-29T15:46:55;2.15;;;0.93;;
51995;SDS011;38010;53.264;6.592;2022-07-29T15:49:34;3.38;;;0.82;;
51995;SDS011;38010;53.264;6.592;2022-07-29T15:52:02;1.45;;;0.77;;
51995;SDS011;38010;53.264;6.592;2022-07-29T15:54:33;2.42;;;1.15;;
51995;SDS011;38010;53.264;6.592;2022-07-29T15:57:00;1.45;;;0.85;;
51995;SDS011;38010;53.264;6.592;2022-07-29T15:59:27;2.13;;;0.90;;
51995;SDS011;38010;53.264;6.592;2022-07-29T16:01:53;2.70;;;0.80;;
51995;SDS011;38010;53.264;6.592;2022-07-29T16:04:20;2.35;;;0.75;;
51995;SDS011;38010;53.264;6.592;2022-07-29T16:06:46;2.10;;;0.98;;
51995;SDS011;38010;53.264;6.592;2022-07-29T16:09:12;3.05;;;0.93;;
51995;SDS011;38010;53.264;6.592;2022-07-29T16:11:39;0.95;;;0.70;;
51995;SDS011;38010;53.264;6.592;2022-07-29T16:14:05;1.58;;;0.88;;